createdAt,value
2018-12-02T00:00:37.550Z,7.42
2018-12-02T00:05:41.166Z,7.47
2018-12-02T00:10:44.772Z,7.50
2018-12-02T00:15:48.316Z,7.50
2018-12-02T00:20:53.093Z,7.52
2018-12-02T00:25:56.640Z,7.51
2018-12-02T00:31:00.317Z,7.52
2018-12-02T00:36:03.804Z,7.55
2018-12-02T00:41:07.348Z,7.58
2018-12-02T00:46:10.969Z,7.56
2018-12-02T00:51:14.552Z,7.62
2018-12-02T00:56:16.858Z,7.66
2018-12-02T01:01:20.313Z,7.57
2018-12-02T01:06:23.962Z,7.60
2018-12-02T01:11:27.526Z,7.63
2018-12-02T01:16:31.062Z,7.67
2018-12-02T01:21:34.617Z,7.67
2018-12-02T01:26:38.096Z,7.66
2018-12-02T01:31:42.822Z,7.67
2018-12-02T01:36:46.337Z,7.70
2018-12-02T01:41:50.477Z,7.69
2018-12-02T01:46:54.209Z,7.70
2018-12-02T01:51:57.894Z,7.73
2018-12-02T01:57:02.839Z,7.72
2018-12-02T02:02:06.386Z,7.77
2018-12-02T02:07:15.272Z,7.77
2018-12-02T02:12:20.819Z,7.82
2018-12-02T02:17:24.363Z,7.81
2018-12-02T02:22:28.080Z,7.82
2018-12-02T02:27:31.542Z,7.85
2018-12-02T02:32:35.084Z,7.83
2018-12-02T02:37:38.639Z,7.85
2018-12-02T02:42:42.644Z,7.86
2018-12-02T02:47:46.781Z,7.88
2018-12-02T02:52:53.423Z,7.88
2018-12-02T02:57:57.220Z,7.87
2018-12-02T03:03:00.830Z,7.90
2018-12-02T03:08:04.424Z,7.83
2018-12-02T03:13:08.095Z,7.75
2018-12-02T03:18:11.674Z,7.66
2018-12-02T03:23:15.437Z,7.72
2018-12-02T03:28:19.054Z,7.70
2018-12-02T03:33:22.571Z,7.65
2018-12-02T03:38:26.109Z,7.64
2018-12-02T03:43:29.730Z,7.68
2018-12-02T03:48:33.422Z,7.69
2018-12-02T03:53:37.111Z,7.59
2018-12-02T03:58:40.714Z,7.52
2018-12-02T04:03:44.398Z,7.47
2018-12-02T04:08:47.918Z,7.53
2018-12-02T04:13:51.460Z,7.51
2018-12-02T04:18:55.012Z,7.55
2018-12-02T04:23:58.472Z,7.53
2018-12-02T04:29:01.915Z,7.51
2018-12-02T04:34:05.840Z,7.52
2018-12-02T04:39:09.605Z,7.54
2018-12-02T04:44:13.086Z,7.49
2018-12-02T04:49:16.613Z,7.48
2018-12-02T04:54:20.069Z,7.44
2018-12-02T04:59:23.519Z,7.43
2018-12-02T05:04:27.199Z,7.44
2018-12-02T05:09:30.696Z,7.42
2018-12-02T05:14:36.345Z,7.39
2018-12-02T05:19:39.816Z,7.46
2018-12-02T05:24:43.543Z,7.42
2018-12-02T05:29:47.004Z,7.41
2018-12-02T05:34:50.544Z,7.44
2018-12-02T05:39:54.135Z,7.45
2018-12-02T05:44:57.664Z,7.46
2018-12-02T05:50:01.253Z,7.45
2018-12-02T05:55:04.882Z,7.46
2018-12-02T06:00:18.360Z,7.48
2018-12-02T06:05:21.867Z,7.50
2018-12-02T06:10:25.316Z,7.43
2018-12-02T06:15:28.799Z,7.47
2018-12-02T06:20:32.361Z,7.47
2018-12-02T06:25:35.845Z,7.56
2018-12-02T06:30:39.396Z,7.58
2018-12-02T06:35:42.901Z,7.65
2018-12-02T06:40:46.356Z,7.60
2018-12-02T06:45:49.901Z,7.60
2018-12-02T06:50:53.437Z,7.60
2018-12-02T06:56:06.493Z,7.62
2018-12-02T07:01:23.593Z,7.59
2018-12-02T07:06:27.134Z,7.59
2018-12-02T07:11:30.652Z,7.60
2018-12-02T07:16:34.107Z,7.62
2018-12-02T07:21:37.861Z,7.65
2018-12-02T07:26:41.566Z,7.66
2018-12-02T07:31:45.381Z,7.70
2018-12-02T07:36:48.913Z,7.71
2018-12-02T07:41:52.514Z,7.74
2018-12-02T07:46:56.246Z,7.79
2018-12-02T07:51:59.922Z,7.78
2018-12-02T07:57:03.497Z,7.80
2018-12-02T08:02:07.017Z,7.81
2018-12-02T08:07:10.526Z,7.88
2018-12-02T08:12:14.016Z,7.88
2018-12-02T08:17:17.588Z,7.90
2018-12-02T08:22:21.724Z,7.95
2018-12-02T08:27:24.772Z,7.99
2018-12-02T08:32:28.323Z,7.99
2018-12-02T08:37:31.817Z,8.00
2018-12-02T08:42:35.340Z,8.07
2018-12-02T08:47:39.149Z,8.14
2018-12-02T08:52:42.888Z,8.21
2018-12-02T08:57:46.860Z,8.25
2018-12-02T09:02:58.400Z,8.30
2018-12-02T09:08:02.194Z,8.37
2018-12-02T09:13:07.869Z,8.42
2018-12-02T09:18:11.960Z,8.44
2018-12-02T09:23:15.516Z,8.49
2018-12-02T09:28:19.399Z,8.51
2018-12-02T09:33:22.977Z,8.52
2018-12-02T09:38:26.599Z,8.52
2018-12-02T09:43:32.069Z,8.57
2018-12-02T09:48:35.733Z,8.63
2018-12-02T09:53:39.487Z,8.74
2018-12-02T09:58:43.025Z,8.78
2018-12-02T10:03:47.812Z,8.84
2018-12-02T10:08:51.340Z,8.86
2018-12-02T10:13:54.869Z,8.92
2018-12-02T10:18:58.421Z,9.01
2018-12-02T10:24:01.957Z,8.95
2018-12-02T10:29:06.353Z,9.08
2018-12-02T10:34:09.124Z,9.10
2018-12-02T10:39:17.535Z,9.14
2018-12-02T10:44:21.160Z,9.20
2018-12-02T10:49:24.686Z,9.28
2018-12-02T10:54:29.347Z,9.39
2018-12-02T10:59:34.137Z,9.45
2018-12-02T11:04:39.357Z,9.63
2018-12-02T11:09:43.083Z,9.68
2018-12-02T11:14:47.909Z,9.69
2018-12-02T11:19:57.942Z,9.85
2018-12-02T11:25:04.665Z,9.92
2018-12-02T11:30:12.007Z,9.97
2018-12-02T11:35:18.646Z,10.00
2018-12-02T11:40:22.830Z,10.10
2018-12-02T11:45:26.605Z,10.13
2018-12-02T11:50:30.239Z,10.33
2018-12-02T11:55:34.006Z,10.76
2018-12-02T12:00:39.208Z,11.05
2018-12-02T12:05:43.750Z,11.23
2018-12-02T12:10:47.429Z,11.29
2018-12-02T12:15:50.975Z,11.23
2018-12-02T12:20:54.596Z,11.16
2018-12-02T12:25:59.168Z,11.03
2018-12-02T12:31:03.713Z,10.97
2018-12-02T12:36:07.233Z,10.97
2018-12-02T12:41:10.778Z,11.01
2018-12-02T12:46:14.537Z,11.12
2018-12-02T12:51:18.205Z,11.30
2018-12-02T12:56:21.745Z,11.44
2018-12-02T13:01:25.327Z,11.66
2018-12-02T13:06:28.889Z,11.63
2018-12-02T13:11:32.413Z,11.71
2018-12-02T13:16:36.970Z,11.70
2018-12-02T13:21:41.083Z,11.68
2018-12-02T13:26:44.649Z,11.61
2018-12-02T13:31:50.181Z,11.53
2018-12-02T13:36:54.769Z,11.65
2018-12-02T13:41:59.793Z,11.69
2018-12-02T13:47:03.335Z,11.67
2018-12-02T13:52:06.977Z,11.77
2018-12-02T13:57:11.717Z,11.78
2018-12-02T14:02:15.305Z,11.77
2018-12-02T14:07:21.368Z,11.84
2018-12-02T14:12:25.081Z,11.81
2018-12-02T14:17:30.254Z,11.84
2018-12-02T14:22:33.776Z,11.87
2018-12-02T14:27:37.312Z,11.88
2018-12-02T14:32:40.837Z,11.81
2018-12-02T14:37:44.485Z,11.78
2018-12-02T14:42:48.091Z,11.82
2018-12-02T14:47:51.692Z,11.83
2018-12-02T14:52:55.194Z,11.80
2018-12-02T14:57:58.941Z,11.82
2018-12-02T15:03:02.541Z,11.78
2018-12-02T15:08:06.067Z,11.79
2018-12-02T15:13:09.598Z,11.79
2018-12-02T15:18:13.069Z,11.87
2018-12-02T15:23:17.652Z,11.91
2018-12-02T15:28:21.228Z,11.95
2018-12-02T15:33:24.778Z,11.95
2018-12-02T15:38:28.313Z,11.89
2018-12-02T15:43:31.888Z,11.93
2018-12-02T15:48:35.479Z,11.88
2018-12-02T15:53:39.002Z,11.82
2018-12-02T15:58:42.749Z,11.78
2018-12-02T16:03:46.275Z,11.80
2018-12-02T16:08:50.827Z,11.81
2018-12-02T16:13:54.437Z,11.83
2018-12-02T16:18:58.034Z,11.80
2018-12-02T16:24:01.553Z,11.77
2018-12-02T16:29:05.164Z,11.73
2018-12-02T16:34:08.736Z,11.74
2018-12-02T16:39:12.347Z,11.72
2018-12-02T16:44:15.942Z,11.73
2018-12-02T16:49:19.629Z,11.71
2018-12-02T16:54:23.133Z,11.71
2018-12-02T16:59:30.277Z,11.75
2018-12-02T17:04:33.939Z,11.75
2018-12-02T17:09:37.597Z,11.74
2018-12-02T17:14:41.141Z,11.70
2018-12-02T17:19:49.824Z,11.70
2018-12-02T17:24:54.429Z,11.73
2018-12-02T17:29:59.043Z,11.72
2018-12-02T17:35:03.641Z,11.73
2018-12-02T17:40:14.585Z,11.77
2018-12-02T17:45:18.263Z,11.77
2018-12-02T17:50:21.874Z,11.79
2018-12-02T17:55:27.037Z,11.77
2018-12-02T18:00:30.736Z,11.75
2018-12-02T18:05:43.353Z,11.75
2018-12-02T18:10:47.039Z,11.78
2018-12-02T18:15:50.605Z,11.78
2018-12-02T18:20:54.116Z,11.78
2018-12-02T18:25:58.636Z,11.76
2018-12-02T18:31:02.269Z,11.75
2018-12-02T18:36:10.001Z,11.77
2018-12-02T18:41:21.496Z,11.76
2018-12-02T18:46:25.026Z,11.82
2018-12-02T18:51:28.675Z,11.83
2018-12-02T18:56:32.246Z,11.86
2018-12-02T19:01:35.916Z,11.92
2018-12-02T19:06:39.513Z,11.84
2018-12-02T19:11:42.977Z,11.82
2018-12-02T19:16:46.448Z,11.81
2018-12-02T19:21:50.028Z,11.83
2018-12-02T19:26:53.573Z,11.80
2018-12-02T19:31:57.165Z,11.79
2018-12-02T19:37:03.633Z,11.77
2018-12-02T19:42:08.046Z,11.76
2018-12-02T19:47:11.690Z,11.78
2018-12-02T19:52:15.230Z,11.74
2018-12-02T19:57:24.400Z,11.77
2018-12-02T20:02:28.075Z,11.81
2018-12-02T20:07:34.758Z,11.78
2018-12-02T20:12:41.105Z,11.77
2018-12-02T20:17:45.022Z,11.86
2018-12-02T20:22:48.696Z,11.87
2018-12-02T20:27:54.329Z,11.88
2018-12-02T20:32:57.989Z,11.86
2018-12-02T20:38:01.531Z,11.82
2018-12-02T20:43:05.049Z,11.82
2018-12-02T20:48:08.617Z,11.77
2018-12-02T20:53:16.092Z,11.76
2018-12-02T20:58:15.776Z,11.74
2018-12-02T21:03:23.134Z,11.67
2018-12-02T21:08:32.300Z,11.63
2018-12-02T21:13:36.001Z,11.64
2018-12-02T21:18:39.669Z,11.63
2018-12-02T21:23:43.321Z,11.68
2018-12-02T21:28:46.852Z,11.67
2018-12-02T21:33:50.423Z,11.68
2018-12-02T21:38:53.971Z,11.67
2018-12-02T21:43:57.516Z,11.69
2018-12-02T21:49:01.092Z,11.71
2018-12-02T21:54:04.725Z,11.63
2018-12-02T21:59:08.271Z,11.66
2018-12-02T22:04:11.879Z,11.64
2018-12-02T22:09:16.498Z,11.62
2018-12-02T22:14:19.960Z,11.65
2018-12-02T22:19:23.636Z,11.68
2018-12-02T22:24:27.209Z,11.73
2018-12-02T22:29:30.732Z,11.69
2018-12-02T22:34:34.325Z,11.68
2018-12-02T22:39:37.982Z,11.63
2018-12-02T22:44:41.542Z,11.63
2018-12-02T22:49:45.069Z,11.60
2018-12-02T22:54:48.598Z,11.58
2018-12-02T22:59:52.090Z,11.55
2018-12-02T23:04:55.772Z,11.55
2018-12-02T23:09:59.324Z,11.58
2018-12-02T23:15:02.879Z,11.59
2018-12-02T23:20:09.117Z,11.61
2018-12-02T23:25:13.660Z,11.71
2018-12-02T23:30:22.916Z,11.75
2018-12-02T23:35:26.441Z,11.81
2018-12-02T23:40:29.928Z,11.74
2018-12-02T23:45:33.564Z,11.74
2018-12-02T23:50:37.081Z,11.70
2018-12-02T23:55:40.558Z,11.62
